createdAt,value
2023-03-29T00:02:02.067Z,4.72
2023-03-29T00:04:34.258Z,3.85
2023-03-29T00:07:04.411Z,4.38
2023-03-29T00:09:33.432Z,4.30
2023-03-29T00:12:01.168Z,4.25
2023-03-29T00:14:30.544Z,5.05
2023-03-29T00:16:57.996Z,5.32
2023-03-29T00:19:24.713Z,4.90
2023-03-29T00:21:51.292Z,4.32
2023-03-29T00:24:17.909Z,4.28
2023-03-29T00:26:44.484Z,4.72
2023-03-29T00:29:11.212Z,4.40
2023-03-29T00:31:37.838Z,4.80
2023-03-29T00:34:04.438Z,5.18
2023-03-29T00:36:31.717Z,4.82
2023-03-29T00:38:58.280Z,4.82
2023-03-29T00:41:24.855Z,5.35
2023-03-29T00:43:56.124Z,4.95
2023-03-29T00:46:23.730Z,4.88
2023-03-29T00:48:52.494Z,4.85
2023-03-29T00:51:20.043Z,4.75
2023-03-29T00:53:49.662Z,5.13
2023-03-29T00:56:37.544Z,5.10
2023-03-29T00:59:10.863Z,4.82
2023-03-29T01:01:44.083Z,4.47
2023-03-29T01:04:25.842Z,4.45
2023-03-29T01:07:14.199Z,4.72
2023-03-29T01:09:44.571Z,4.55
2023-03-29T01:12:21.178Z,3.95
2023-03-29T01:15:01.573Z,4.53
2023-03-29T01:17:31.679Z,4.20
2023-03-29T01:20:08.005Z,3.75
2023-03-29T01:22:51.417Z,3.97
2023-03-29T01:25:38.861Z,4.00
2023-03-29T01:28:09.187Z,3.95
2023-03-29T01:30:48.527Z,3.30
2023-03-29T01:33:23.582Z,3.85
2023-03-29T01:36:08.141Z,3.85
2023-03-29T01:38:39.438Z,4.10
2023-03-29T01:41:06.985Z,3.92
2023-03-29T01:43:39.291Z,3.77
2023-03-29T01:46:11.729Z,4.28
2023-03-29T01:48:44.386Z,3.95
2023-03-29T01:51:32.407Z,3.70
2023-03-29T01:54:04.927Z,4.00
2023-03-29T01:56:34.522Z,3.60
2023-03-29T01:59:04.234Z,3.47
2023-03-29T02:01:35.285Z,3.75
2023-03-29T02:04:04.721Z,3.60
2023-03-29T02:06:33.084Z,3.38
2023-03-29T02:08:59.997Z,3.83
2023-03-29T02:11:30.207Z,3.40
2023-03-29T02:13:57.464Z,3.38
2023-03-29T02:16:24.090Z,3.45
2023-03-29T02:18:52.989Z,3.33
2023-03-29T02:21:40.785Z,3.33
2023-03-29T02:24:10.033Z,3.53
2023-03-29T02:26:36.734Z,3.55
2023-03-29T02:29:03.625Z,3.20
2023-03-29T02:31:37.190Z,3.25
2023-03-29T02:34:16.046Z,3.20
2023-03-29T02:36:46.705Z,3.55
2023-03-29T02:39:15.805Z,3.35
2023-03-29T02:41:44.662Z,3.20
2023-03-29T02:44:14.222Z,3.00
2023-03-29T02:46:42.968Z,3.40
2023-03-29T02:49:10.690Z,3.05
2023-03-29T02:51:38.386Z,3.30
2023-03-29T02:54:06.540Z,3.25
2023-03-29T02:56:48.165Z,3.55
2023-03-29T02:59:16.678Z,3.40
2023-03-29T03:01:43.335Z,3.53
2023-03-29T03:04:10.383Z,3.15
2023-03-29T03:06:37.780Z,3.33
2023-03-29T03:09:07.997Z,3.50
2023-03-29T03:11:34.590Z,3.65
2023-03-29T03:14:01.541Z,3.08
2023-03-29T03:16:28.332Z,3.40
2023-03-29T03:18:55.716Z,3.85
2023-03-29T03:21:22.731Z,3.05
2023-03-29T03:23:49.707Z,3.03
2023-03-29T03:26:17.913Z,3.40
2023-03-29T03:28:45.805Z,3.40
2023-03-29T03:31:15.902Z,3.10
2023-03-29T03:33:42.516Z,3.53
2023-03-29T03:36:10.568Z,3.70
2023-03-29T03:38:38.196Z,3.40
2023-03-29T03:41:06.898Z,3.13
2023-03-29T03:43:33.873Z,3.80
2023-03-29T03:46:00.532Z,3.35
2023-03-29T03:48:27.394Z,3.60
2023-03-29T03:50:57.015Z,3.55
2023-03-29T03:53:25.276Z,3.55
2023-03-29T03:55:53.366Z,3.97
2023-03-29T03:58:19.968Z,2.95
2023-03-29T04:00:50.616Z,3.00
2023-03-29T04:03:18.061Z,2.90
2023-03-29T04:05:46.513Z,4.07
2023-03-29T04:08:13.537Z,3.70
2023-03-29T04:10:40.204Z,3.47
2023-03-29T04:13:07.142Z,3.53
2023-03-29T04:15:38.508Z,3.78
2023-03-29T04:18:07.395Z,3.85
2023-03-29T04:20:34.687Z,3.80
2023-03-29T04:23:01.602Z,3.60
2023-03-29T04:25:28.548Z,4.18
2023-03-29T04:27:55.213Z,4.20
2023-03-29T04:30:22.162Z,4.22
2023-03-29T04:32:48.849Z,4.43
2023-03-29T04:35:15.479Z,3.70
2023-03-29T04:37:42.234Z,4.00
2023-03-29T04:40:09.898Z,4.45
2023-03-29T04:42:37.522Z,3.95
2023-03-29T04:45:06.966Z,3.80
2023-03-29T04:47:36.318Z,3.83
2023-03-29T04:50:03.692Z,4.10
2023-03-29T04:52:33.229Z,4.03
2023-03-29T04:55:01.549Z,4.35
2023-03-29T04:57:28.668Z,4.45
2023-03-29T04:59:55.757Z,4.10
2023-03-29T05:02:22.471Z,4.15
2023-03-29T05:04:49.281Z,4.65
2023-03-29T05:07:18.031Z,4.03
2023-03-29T05:09:44.620Z,4.57
2023-03-29T05:12:11.614Z,4.20
2023-03-29T05:14:38.170Z,4.60
2023-03-29T05:17:05.266Z,3.97
2023-03-29T05:19:32.171Z,3.92
2023-03-29T05:21:59.151Z,4.35
2023-03-29T05:24:25.788Z,4.30
2023-03-29T05:26:52.622Z,4.25
2023-03-29T05:29:19.311Z,3.83
2023-03-29T05:31:47.247Z,4.10
2023-03-29T05:34:13.886Z,4.47
2023-03-29T05:36:40.471Z,4.78
2023-03-29T05:39:07.385Z,3.40
2023-03-29T05:41:34.583Z,3.55
2023-03-29T05:44:01.631Z,3.72
2023-03-29T05:46:28.585Z,3.28
2023-03-29T05:48:55.179Z,3.50
2023-03-29T05:51:24.436Z,3.28
2023-03-29T05:53:52.077Z,3.30
2023-03-29T05:56:19.166Z,3.10
2023-03-29T05:58:49.527Z,3.13
2023-03-29T06:01:18.067Z,3.30
2023-03-29T06:08:42.441Z,3.25
2023-03-29T06:11:11.435Z,3.05
2023-03-29T06:13:39.046Z,3.25
2023-03-29T06:16:06.683Z,3.78
2023-03-29T06:18:34.194Z,3.27
2023-03-29T06:21:02.785Z,3.03
2023-03-29T06:23:30.914Z,2.90
2023-03-29T06:25:58.085Z,2.78
2023-03-29T06:28:24.835Z,2.85
2023-03-29T06:30:53.460Z,3.17
2023-03-29T06:33:20.623Z,2.92
2023-03-29T06:35:48.083Z,3.20
2023-03-29T06:38:15.283Z,2.88
2023-03-29T06:40:43.224Z,3.20
2023-03-29T06:43:10.370Z,2.75
2023-03-29T06:45:38.648Z,2.78
2023-03-29T06:48:07.841Z,2.67
2023-03-29T06:50:35.428Z,3.50
2023-03-29T06:53:02.304Z,2.78
2023-03-29T06:55:28.948Z,3.42
2023-03-29T06:57:55.730Z,2.70
2023-03-29T07:00:28.753Z,2.85
2023-03-29T07:02:58.067Z,3.40
2023-03-29T07:05:29.304Z,3.13
2023-03-29T07:08:11.765Z,2.70
2023-03-29T07:10:41.268Z,3.30
2023-03-29T07:13:09.283Z,3.38
2023-03-29T07:15:36.125Z,3.95
2023-03-29T07:18:04.776Z,4.20
2023-03-29T07:20:33.795Z,3.88
2023-03-29T07:23:00.691Z,4.35
2023-03-29T07:25:27.694Z,4.78
2023-03-29T07:27:54.433Z,4.40
2023-03-29T07:30:23.944Z,4.47
2023-03-29T07:32:51.369Z,4.70
2023-03-29T07:35:18.529Z,4.60
2023-03-29T07:37:46.444Z,5.05
2023-03-29T07:40:24.592Z,4.82
2023-03-29T07:45:26.750Z,5.45
2023-03-29T07:47:56.403Z,5.32
2023-03-29T07:50:23.115Z,5.07
2023-03-29T07:52:50.223Z,5.70
2023-03-29T07:55:17.011Z,5.72
2023-03-29T07:57:44.268Z,5.20
2023-03-29T08:00:16.256Z,5.50
2023-03-29T08:02:44.771Z,5.80
2023-03-29T08:05:13.687Z,5.35
2023-03-29T08:07:42.383Z,5.60
2023-03-29T08:10:11.244Z,5.75
2023-03-29T08:12:38.299Z,5.32
2023-03-29T08:15:05.732Z,5.18
2023-03-29T08:17:33.237Z,5.03
2023-03-29T08:19:59.866Z,5.63
2023-03-29T08:22:26.510Z,5.03
2023-03-29T08:24:53.063Z,5.90
2023-03-29T08:27:19.755Z,5.22
2023-03-29T08:29:46.669Z,5.13
2023-03-29T08:32:13.276Z,5.47
2023-03-29T08:34:39.843Z,5.63
2023-03-29T08:37:06.484Z,4.93
2023-03-29T08:39:33.651Z,4.72
2023-03-29T08:42:09.505Z,4.82
2023-03-29T08:44:42.207Z,4.80
2023-03-29T08:47:21.899Z,5.07
2023-03-29T08:49:51.062Z,4.80
2023-03-29T08:52:48.752Z,5.30
2023-03-29T08:55:31.992Z,4.85
2023-03-29T08:58:00.203Z,4.45
2023-03-29T09:00:29.778Z,5.10
2023-03-29T09:02:57.542Z,4.78
2023-03-29T09:05:31.109Z,4.28
2023-03-29T09:07:58.063Z,4.30
2023-03-29T09:10:31.091Z,4.35
2023-03-29T09:13:36.701Z,4.05
2023-03-29T09:16:18.584Z,4.50
2023-03-29T09:19:09.640Z,4.22
2023-03-29T09:21:46.662Z,4.25
2023-03-29T09:24:38.657Z,4.13
2023-03-29T09:27:05.329Z,4.20
2023-03-29T09:29:53.190Z,3.97
2023-03-29T09:32:42.304Z,4.03
2023-03-29T09:35:18.763Z,4.18
2023-03-29T09:37:46.817Z,4.22
2023-03-29T09:40:16.905Z,3.78
2023-03-29T09:42:44.468Z,3.58
2023-03-29T09:45:11.485Z,4.07
2023-03-29T09:47:58.537Z,3.90
2023-03-29T09:50:34.010Z,3.90
2023-03-29T09:53:01.239Z,3.70
2023-03-29T09:55:30.224Z,3.80
2023-03-29T09:58:18.177Z,4.20
2023-03-29T10:00:45.439Z,3.75
2023-03-29T10:03:29.772Z,3.63
2023-03-29T10:05:59.330Z,4.35
2023-03-29T10:08:31.097Z,4.15
2023-03-29T10:10:58.574Z,4.22
2023-03-29T10:13:30.689Z,3.90
2023-03-29T10:16:01.429Z,3.95
2023-03-29T10:18:30.870Z,4.45
2023-03-29T10:21:02.708Z,5.50
2023-03-29T10:23:37.714Z,3.92
2023-03-29T10:26:06.730Z,4.05
2023-03-29T10:28:35.023Z,4.10
2023-03-29T10:31:04.008Z,4.63
2023-03-29T10:33:33.263Z,3.75
2023-03-29T10:36:01.013Z,4.18
2023-03-29T10:38:29.456Z,4.80
2023-03-29T10:41:04.272Z,4.65
2023-03-29T10:43:38.438Z,4.95
2023-03-29T10:46:18.291Z,5.28
2023-03-29T10:48:51.119Z,5.10
2023-03-29T10:51:18.914Z,5.50
2023-03-29T10:53:45.855Z,5.22
2023-03-29T10:56:25.062Z,4.55
2023-03-29T10:58:57.906Z,5.10
2023-03-29T11:01:33.712Z,5.88
2023-03-29T11:04:45.062Z,5.38
2023-03-29T11:07:48.186Z,5.35
2023-03-29T11:10:46.090Z,5.45
2023-03-29T11:13:54.497Z,5.18
2023-03-29T11:16:29.946Z,6.00
2023-03-29T11:19:23.839Z,6.40
2023-03-29T11:21:59.352Z,6.00
2023-03-29T11:24:47.805Z,6.50
2023-03-29T11:27:14.375Z,5.97
2023-03-29T11:30:18.308Z,5.70
2023-03-29T11:32:45.297Z,6.10
2023-03-29T11:35:30.411Z,6.30
2023-03-29T11:38:19.084Z,6.43
2023-03-29T11:40:53.459Z,6.57
2023-03-29T11:43:37.875Z,5.38
2023-03-29T11:46:18.314Z,6.95
2023-03-29T11:49:05.627Z,6.85
2023-03-29T11:51:33.825Z,6.45
2023-03-29T11:54:18.838Z,5.82
2023-03-29T11:57:02.648Z,5.85
2023-03-29T11:59:35.376Z,6.22
2023-03-29T12:02:09.354Z,6.47
2023-03-29T12:04:42.668Z,7.40
2023-03-29T12:07:28.174Z,6.47
2023-03-29T12:10:21.707Z,6.95
2023-03-29T12:12:58.616Z,7.97
2023-03-29T12:15:28.929Z,8.48
2023-03-29T12:18:14.548Z,7.75
2023-03-29T12:20:42.172Z,7.90
2023-03-29T12:23:13.382Z,9.23
2023-03-29T12:26:08.544Z,9.93
2023-03-29T12:28:55.585Z,9.85
2023-03-29T12:31:31.524Z,9.75
2023-03-29T12:34:04.936Z,9.23
2023-03-29T12:36:55.446Z,10.25
2023-03-29T12:39:23.019Z,10.15
2023-03-29T12:41:51.956Z,9.47
2023-03-29T12:44:22.574Z,9.27
2023-03-29T12:46:54.505Z,9.45
2023-03-29T12:49:28.495Z,9.82
2023-03-29T12:51:57.482Z,9.00
2023-03-29T12:54:28.189Z,9.18
2023-03-29T12:56:58.531Z,10.02
2023-03-29T12:59:46.851Z,10.20
2023-03-29T13:04:43.624Z,8.68
2023-03-29T13:07:30.804Z,8.88
2023-03-29T13:09:59.541Z,8.25
2023-03-29T13:12:35.296Z,9.10
2023-03-29T13:15:06.457Z,9.63
2023-03-29T13:18:07.061Z,9.07
2023-03-29T13:20:45.703Z,7.88
2023-03-29T13:26:13.665Z,8.43
2023-03-29T13:29:02.392Z,7.80
2023-03-29T13:31:46.747Z,8.32
2023-03-29T13:34:27.614Z,9.15
2023-03-29T13:37:16.300Z,9.63
2023-03-29T13:39:51.706Z,9.90
2023-03-29T13:42:34.134Z,10.80
2023-03-29T13:45:24.076Z,10.15
2023-03-29T13:48:05.373Z,10.20
2023-03-29T13:50:38.794Z,10.45
2023-03-29T13:53:15.920Z,11.07
2023-03-29T13:55:51.370Z,10.68
2023-03-29T13:58:30.727Z,10.40
2023-03-29T14:01:09.416Z,10.60
2023-03-29T14:03:42.262Z,10.10
2023-03-29T14:06:10.570Z,10.95
2023-03-29T14:08:41.052Z,9.93
2023-03-29T14:11:23.156Z,10.18
2023-03-29T14:13:54.603Z,9.65
2023-03-29T14:16:21.736Z,11.25
2023-03-29T14:18:51.351Z,10.98
2023-03-29T14:21:18.621Z,11.68
2023-03-29T14:23:46.725Z,11.55
2023-03-29T14:26:23.009Z,11.65
2023-03-29T14:28:56.603Z,12.73
2023-03-29T14:31:35.570Z,14.30
2023-03-29T14:34:05.011Z,14.65
2023-03-29T14:36:33.361Z,14.52
2023-03-29T14:41:31.727Z,12.20
2023-03-29T14:43:58.832Z,11.55
2023-03-29T14:46:25.831Z,12.60
2023-03-29T14:48:53.154Z,14.90
2023-03-29T14:51:20.554Z,14.88
2023-03-29T14:53:48.585Z,14.98
2023-03-29T14:56:18.118Z,16.40
2023-03-29T14:58:48.597Z,13.98
2023-03-29T15:01:18.036Z,14.50
2023-03-29T15:03:49.336Z,14.88
2023-03-29T15:06:16.645Z,12.57
2023-03-29T15:08:51.167Z,14.25
2023-03-29T15:11:29.568Z,14.80
2023-03-29T15:14:01.341Z,14.33
2023-03-29T15:16:30.591Z,13.95
2023-03-29T15:18:57.928Z,13.68
2023-03-29T15:21:31.079Z,14.00
2023-03-29T15:23:58.746Z,13.40
2023-03-29T15:26:32.849Z,15.80
2023-03-29T15:29:08.040Z,14.10
2023-03-29T15:31:37.309Z,13.43
2023-03-29T15:34:10.353Z,13.95
2023-03-29T15:36:45.278Z,12.95
2023-03-29T15:39:17.158Z,11.38
2023-03-29T15:41:45.660Z,10.82
2023-03-29T15:46:38.710Z,10.48
2023-03-29T15:49:05.380Z,11.15
2023-03-29T15:51:32.101Z,11.43
2023-03-29T15:53:58.661Z,10.55
2023-03-29T15:56:26.684Z,12.25
2023-03-29T15:58:53.301Z,10.05
2023-03-29T16:01:33.506Z,9.93
2023-03-29T16:04:10.354Z,9.75
2023-03-29T16:06:37.283Z,9.32
2023-03-29T16:09:06.296Z,8.77
2023-03-29T16:11:33.301Z,9.68
2023-03-29T16:13:59.884Z,8.35
2023-03-29T16:16:27.192Z,8.70
2023-03-29T16:18:53.822Z,10.40
2023-03-29T16:21:22.357Z,9.85
2023-03-29T16:26:16.780Z,8.70
2023-03-29T16:28:43.808Z,8.77
2023-03-29T16:31:12.616Z,9.10
2023-03-29T16:33:40.566Z,8.85
2023-03-29T16:36:08.073Z,8.57
2023-03-29T16:38:34.951Z,8.25
2023-03-29T16:41:01.817Z,9.30
2023-03-29T16:43:28.385Z,7.63
2023-03-29T16:45:55.047Z,8.93
2023-03-29T16:48:21.874Z,8.73
2023-03-29T16:50:49.516Z,8.80
2023-03-29T16:53:18.260Z,8.33
2023-03-29T16:55:48.251Z,9.13
2023-03-29T16:58:15.530Z,8.40
2023-03-29T17:00:43.385Z,9.15
2023-03-29T17:03:11.129Z,8.52
2023-03-29T17:05:41.428Z,8.40
2023-03-29T17:08:10.048Z,7.75
2023-03-29T17:10:39.429Z,8.23
2023-03-29T17:13:06.710Z,8.10
2023-03-29T17:15:33.637Z,7.43
2023-03-29T17:18:00.300Z,7.75
2023-03-29T17:20:26.940Z,7.63
2023-03-29T17:22:55.993Z,7.35
2023-03-29T17:25:23.279Z,8.73
2023-03-29T17:27:49.986Z,8.73
2023-03-29T17:30:17.329Z,7.28
2023-03-29T17:32:45.601Z,7.18
2023-03-29T17:35:12.842Z,7.85
2023-03-29T17:37:39.802Z,7.90
2023-03-29T17:40:13.962Z,7.07
2023-03-29T17:42:41.693Z,8.13
2023-03-29T17:45:10.036Z,9.93
2023-03-29T17:47:37.290Z,9.63
2023-03-29T17:50:05.258Z,10.05
2023-03-29T17:52:31.945Z,10.90
2023-03-29T17:54:58.573Z,9.55
2023-03-29T17:57:25.260Z,9.45
2023-03-29T17:59:51.973Z,11.13
2023-03-29T18:02:21.796Z,9.85
2023-03-29T18:04:48.965Z,10.30
2023-03-29T18:07:15.893Z,9.80
2023-03-29T18:09:42.674Z,11.23
2023-03-29T18:12:09.486Z,12.10
2023-03-29T18:14:36.149Z,10.63
2023-03-29T18:17:02.965Z,10.93
2023-03-29T18:19:29.632Z,11.18
2023-03-29T18:21:56.480Z,11.98
2023-03-29T18:24:23.089Z,11.90
2023-03-29T18:26:49.639Z,12.13
2023-03-29T18:29:16.278Z,10.95
2023-03-29T18:31:43.644Z,11.57
2023-03-29T18:34:10.264Z,10.68
2023-03-29T18:36:37.210Z,12.23
2023-03-29T18:39:05.898Z,11.60
2023-03-29T18:41:34.071Z,11.57
2023-03-29T18:44:00.939Z,11.80
2023-03-29T18:46:31.817Z,11.73
2023-03-29T18:48:59.665Z,12.68
2023-03-29T18:51:28.078Z,10.57
2023-03-29T18:56:21.716Z,11.60
2023-03-29T18:58:48.437Z,12.38
2023-03-29T19:01:15.383Z,12.27
2023-03-29T19:03:42.072Z,12.77
2023-03-29T19:06:08.978Z,12.30
2023-03-29T19:08:37.361Z,12.30
2023-03-29T19:11:05.846Z,12.93
2023-03-29T19:13:32.548Z,12.18
2023-03-29T19:15:59.406Z,12.90
2023-03-29T19:18:26.458Z,12.13
2023-03-29T19:20:56.236Z,11.90
2023-03-29T19:23:25.162Z,12.50
2023-03-29T19:25:56.486Z,12.05
2023-03-29T19:28:23.869Z,12.68
2023-03-29T19:30:50.566Z,11.18
2023-03-29T19:33:17.383Z,12.45
2023-03-29T19:35:44.170Z,14.55
2023-03-29T19:38:10.945Z,15.63
2023-03-29T19:40:37.749Z,13.52
2023-03-29T19:43:04.496Z,12.85
2023-03-29T19:45:31.231Z,12.52
2023-03-29T19:48:02.622Z,12.77
2023-03-29T19:50:31.650Z,13.30
2023-03-29T19:52:58.547Z,13.15
2023-03-29T19:55:25.995Z,14.02
2023-03-29T19:57:52.560Z,12.48
2023-03-29T20:00:24.486Z,13.88
2023-03-29T20:02:52.334Z,12.52
2023-03-29T20:05:19.008Z,12.43
2023-03-29T20:07:45.786Z,12.98
2023-03-29T20:10:12.420Z,13.20
2023-03-29T20:12:39.047Z,12.45
2023-03-29T20:15:06.185Z,13.52
2023-03-29T20:17:35.405Z,12.30
2023-03-29T20:20:08.234Z,13.38
2023-03-29T20:22:34.831Z,12.88
2023-03-29T20:25:01.394Z,12.48
2023-03-29T20:27:29.436Z,12.52
2023-03-29T20:29:56.146Z,12.57
2023-03-29T20:32:22.863Z,12.88
2023-03-29T20:34:49.602Z,12.98
2023-03-29T20:37:16.132Z,13.07
2023-03-29T20:39:43.100Z,12.90
2023-03-29T20:42:09.632Z,12.98
2023-03-29T20:44:36.639Z,12.68
2023-03-29T20:47:04.184Z,12.35
2023-03-29T20:49:36.902Z,12.85
2023-03-29T20:52:10.696Z,11.98
2023-03-29T20:54:38.773Z,11.95
2023-03-29T20:57:06.828Z,12.48
2023-03-29T20:59:34.471Z,12.13
2023-03-29T21:02:01.482Z,10.70
2023-03-29T21:04:28.519Z,11.10
2023-03-29T21:06:56.185Z,11.82
2023-03-29T21:09:25.453Z,10.40
2023-03-29T21:11:52.687Z,10.75
2023-03-29T21:14:22.522Z,11.32
2023-03-29T21:16:49.717Z,10.93
2023-03-29T21:19:16.933Z,11.05
2023-03-29T21:21:44.917Z,9.68
2023-03-29T21:24:13.481Z,9.95
2023-03-29T21:29:07.325Z,10.18
2023-03-29T21:31:33.894Z,9.25
2023-03-29T21:34:00.678Z,9.35
2023-03-29T21:36:27.236Z,10.65
2023-03-29T21:38:53.845Z,10.85
2023-03-29T21:41:20.827Z,11.23
2023-03-29T21:43:47.661Z,10.40
2023-03-29T21:46:14.758Z,10.63
2023-03-29T21:48:41.885Z,11.77
2023-03-29T21:51:09.002Z,11.15
2023-03-29T21:53:35.593Z,11.70
2023-03-29T21:56:02.180Z,11.38
2023-03-29T21:58:28.769Z,9.50
2023-03-29T22:00:55.901Z,10.50
2023-03-29T22:03:22.582Z,10.85
2023-03-29T22:05:59.800Z,10.70
2023-03-29T22:08:26.517Z,9.82
2023-03-29T22:10:57.711Z,10.60
2023-03-29T22:13:26.158Z,9.13
2023-03-29T22:16:00.641Z,9.05
2023-03-29T22:18:30.023Z,9.18
2023-03-29T22:20:57.207Z,9.27
2023-03-29T22:23:24.946Z,7.95
2023-03-29T22:25:51.685Z,8.23
2023-03-29T22:28:18.338Z,8.35
2023-03-29T22:30:44.905Z,8.25
2023-03-29T22:33:11.469Z,8.02
2023-03-29T22:35:38.111Z,6.95
2023-03-29T22:38:04.705Z,7.68
2023-03-29T22:40:33.289Z,7.47
2023-03-29T22:45:26.560Z,7.40
2023-03-29T22:47:53.202Z,7.40
2023-03-29T22:50:19.903Z,7.78
2023-03-29T22:52:46.508Z,6.72
2023-03-29T22:55:13.217Z,6.88
2023-03-29T22:57:39.764Z,7.05
2023-03-29T23:00:09.261Z,7.78
2023-03-29T23:02:36.786Z,6.32
2023-03-29T23:05:03.477Z,6.70
2023-03-29T23:07:30.334Z,6.50
2023-03-29T23:09:56.926Z,7.25
2023-03-29T23:12:24.221Z,6.75
2023-03-29T23:14:53.153Z,7.80
2023-03-29T23:17:19.730Z,6.40
2023-03-29T23:19:46.662Z,6.25
2023-03-29T23:22:13.633Z,6.05
2023-03-29T23:24:40.326Z,6.13
2023-03-29T23:27:07.752Z,6.47
2023-03-29T23:29:34.557Z,5.80
2023-03-29T23:32:01.143Z,6.00
2023-03-29T23:34:27.689Z,6.32
2023-03-29T23:36:54.279Z,6.78
2023-03-29T23:39:20.841Z,6.93
2023-03-29T23:41:47.454Z,6.63
2023-03-29T23:44:14.044Z,6.13
2023-03-29T23:46:41.926Z,5.95
2023-03-29T23:49:09.919Z,5.85
2023-03-29T23:51:39.253Z,6.53
2023-03-29T23:54:06.324Z,7.35
2023-03-29T23:56:33.464Z,6.40
2023-03-29T23:59:00.130Z,5.85
